createdAt,value
2022-09-03T00:01:20.511Z,7.00
2022-09-03T00:03:56.936Z,10.80
2022-09-03T00:06:34.255Z,8.10
2022-09-03T00:09:13.227Z,7.20
2022-09-03T00:11:52.069Z,7.20
2022-09-03T00:14:28.127Z,10.10
2022-09-03T00:17:04.499Z,4.70
2022-09-03T00:19:42.086Z,8.30
2022-09-03T00:22:19.010Z,11.40
2022-09-03T00:24:51.566Z,8.60
2022-09-03T00:27:28.278Z,5.30
2022-09-03T00:30:04.540Z,10.60
2022-09-03T00:32:47.280Z,7.80
2022-09-03T00:35:24.904Z,10.10
2022-09-03T00:37:57.259Z,6.80
2022-09-03T00:40:50.735Z,8.70
2022-09-03T00:43:32.771Z,6.40
2022-09-03T00:46:18.743Z,6.90
2022-09-03T00:49:09.523Z,10.40
2022-09-03T00:51:51.962Z,6.90
2022-09-03T00:54:35.186Z,6.80
2022-09-03T00:57:25.963Z,6.90
2022-09-03T01:00:05.036Z,6.60
2022-09-03T01:02:49.366Z,6.00
2022-09-03T01:05:35.879Z,8.00
2022-09-03T01:08:22.418Z,7.90
2022-09-03T01:10:59.062Z,9.10
2022-09-03T01:13:35.107Z,5.60
2022-09-03T01:16:17.398Z,7.10
2022-09-03T01:18:56.666Z,8.20
2022-09-03T01:21:46.861Z,6.30
2022-09-03T01:24:43.693Z,11.20
2022-09-03T01:27:31.608Z,5.60
2022-09-03T01:30:07.121Z,5.40
2022-09-03T01:32:47.081Z,6.70
2022-09-03T01:35:28.202Z,9.30
2022-09-03T01:38:12.116Z,7.30
2022-09-03T01:40:50.257Z,15.00
2022-09-03T01:43:43.308Z,7.90
2022-09-03T01:46:24.960Z,7.20
2022-09-03T01:49:06.844Z,5.00
2022-09-03T01:51:37.715Z,4.60
2022-09-03T01:54:35.562Z,7.20
2022-09-03T01:57:35.808Z,7.80
2022-09-03T02:00:13.631Z,6.30
2022-09-03T02:02:48.208Z,10.00
2022-09-03T02:05:23.028Z,7.20
2022-09-03T02:08:00.588Z,6.30
2022-09-03T02:10:39.600Z,8.10
2022-09-03T02:13:15.018Z,8.20
2022-09-03T02:15:49.688Z,12.70
2022-09-03T02:18:25.741Z,8.00
2022-09-03T02:20:57.444Z,5.50
2022-09-03T02:23:29.904Z,7.10
2022-09-03T02:26:03.184Z,8.00
2022-09-03T02:28:35.334Z,6.90
2022-09-03T02:31:06.782Z,12.10
2022-09-03T02:33:40.575Z,13.00
2022-09-03T02:36:14.752Z,6.40
2022-09-03T02:38:46.576Z,6.30
2022-09-03T02:41:17.989Z,5.90
2022-09-03T02:43:56.080Z,7.10
2022-09-03T02:46:31.238Z,6.70
2022-09-03T02:51:36.740Z,9.80
2022-09-03T02:54:09.498Z,5.60
2022-09-03T02:56:40.463Z,10.70
2022-09-03T02:59:12.121Z,15.30
2022-09-03T03:01:43.073Z,7.60
2022-09-03T03:04:17.702Z,7.00
2022-09-03T03:06:50.816Z,8.40
2022-09-03T03:09:21.815Z,8.20
2022-09-03T03:11:55.513Z,6.20
2022-09-03T03:14:26.548Z,7.30
2022-09-03T03:16:57.577Z,5.90
2022-09-03T03:19:28.588Z,9.30
2022-09-03T03:22:00.894Z,8.70
2022-09-03T03:24:32.351Z,6.50
2022-09-03T03:27:05.995Z,8.80
2022-09-03T03:29:36.924Z,8.40
2022-09-03T03:32:08.084Z,8.50
2022-09-03T03:34:40.053Z,8.00
2022-09-03T03:37:11.024Z,8.00
2022-09-03T03:39:42.022Z,6.80
2022-09-03T03:42:14.352Z,6.70
2022-09-03T03:44:45.395Z,10.40
2022-09-03T03:47:17.191Z,10.60
2022-09-03T03:49:48.379Z,6.70
2022-09-03T03:52:19.397Z,7.70
2022-09-03T03:54:50.583Z,10.70
2022-09-03T03:57:23.207Z,5.90
2022-09-03T03:59:54.078Z,6.90
2022-09-03T04:02:25.108Z,7.30
2022-09-03T04:04:55.996Z,8.50
2022-09-03T04:07:27.166Z,6.90
2022-09-03T04:09:58.106Z,6.40
2022-09-03T04:12:29.582Z,7.30
2022-09-03T04:15:00.523Z,12.70
2022-09-03T04:17:31.989Z,9.10
2022-09-03T04:20:03.057Z,13.20
2022-09-03T04:22:34.158Z,10.80
2022-09-03T04:25:05.549Z,7.10
2022-09-03T04:27:36.464Z,9.70
2022-09-03T04:30:09.262Z,7.10
2022-09-03T04:32:56.248Z,6.50
2022-09-03T04:35:31.809Z,11.70
2022-09-03T04:38:04.378Z,5.70
2022-09-03T04:40:35.399Z,8.80
2022-09-03T04:43:06.732Z,8.10
2022-09-03T04:45:37.792Z,12.70
2022-09-03T04:48:11.933Z,9.40
2022-09-03T04:50:42.828Z,10.50
2022-09-03T04:53:13.832Z,9.20
2022-09-03T04:55:44.741Z,6.10
2022-09-03T04:58:16.201Z,7.50
2022-09-03T05:00:47.278Z,11.10
2022-09-03T05:03:18.272Z,7.20
2022-09-03T05:05:56.851Z,6.50
2022-09-03T05:08:28.466Z,6.80
2022-09-03T05:11:02.663Z,9.10
2022-09-03T05:13:34.047Z,13.90
2022-09-03T05:16:07.540Z,7.50
2022-09-03T05:18:38.748Z,10.50
2022-09-03T05:21:11.519Z,4.20
2022-09-03T05:23:43.947Z,8.20
2022-09-03T05:26:16.495Z,8.20
2022-09-03T05:28:48.470Z,7.80
2022-09-03T05:31:21.320Z,18.30
2022-09-03T05:33:54.554Z,7.20
2022-09-03T05:36:27.191Z,8.30
2022-09-03T05:38:59.113Z,8.40
2022-09-03T05:41:33.630Z,6.90
2022-09-03T05:44:06.214Z,10.40
2022-09-03T05:46:38.080Z,11.60
2022-09-03T05:49:11.727Z,7.50
2022-09-03T05:51:42.677Z,8.80
2022-09-03T05:54:13.705Z,7.00
2022-09-03T05:56:44.642Z,6.10
2022-09-03T05:59:15.573Z,12.50
2022-09-03T06:01:50.925Z,7.80
2022-09-03T06:04:23.929Z,19.20
2022-09-03T06:06:54.950Z,9.10
2022-09-03T06:09:25.849Z,8.20
2022-09-03T06:11:57.173Z,9.20
2022-09-03T06:14:28.476Z,9.20
2022-09-03T06:16:59.500Z,11.10
2022-09-03T06:19:30.480Z,9.50
2022-09-03T06:22:01.404Z,6.30
2022-09-03T06:24:32.387Z,6.50
2022-09-03T06:27:04.012Z,20.00
2022-09-03T06:29:35.744Z,13.10
2022-09-03T06:32:07.145Z,8.10
2022-09-03T06:34:38.191Z,8.20
2022-09-03T06:37:09.171Z,10.00
2022-09-03T06:39:40.269Z,9.60
2022-09-03T06:42:11.668Z,10.20
2022-09-03T06:44:46.437Z,8.00
2022-09-03T06:47:17.715Z,8.00
2022-09-03T06:49:48.719Z,11.30
2022-09-03T06:52:19.649Z,13.90
2022-09-03T06:54:50.705Z,8.10
2022-09-03T06:57:23.764Z,21.00
2022-09-03T06:59:54.794Z,8.60
2022-09-03T07:02:25.921Z,19.10
2022-09-03T07:04:57.251Z,9.00
2022-09-03T07:07:28.302Z,10.80
2022-09-03T07:09:59.264Z,9.90
2022-09-03T07:12:30.396Z,9.40
2022-09-03T07:15:01.362Z,13.70
2022-09-03T07:17:32.324Z,5.30
2022-09-03T07:20:03.533Z,9.10
2022-09-03T07:22:34.769Z,11.70
2022-09-03T07:25:07.175Z,12.40
2022-09-03T07:27:38.771Z,11.70
2022-09-03T07:30:12.576Z,10.10
2022-09-03T07:35:13.100Z,9.20
2022-09-03T07:37:45.371Z,9.70
2022-09-03T07:40:19.239Z,16.30
2022-09-03T07:45:26.909Z,6.60
2022-09-03T07:47:58.935Z,12.30
2022-09-03T07:50:34.165Z,6.70
2022-09-03T07:53:05.117Z,14.20
2022-09-03T07:55:36.689Z,7.30
2022-09-03T07:58:07.889Z,9.60
2022-09-03T08:00:39.239Z,4.80
2022-09-03T08:03:10.828Z,9.30
2022-09-03T08:05:41.775Z,6.10
2022-09-03T08:08:15.593Z,6.80
2022-09-03T08:10:47.843Z,6.90
2022-09-03T08:13:19.412Z,5.80
2022-09-03T08:16:00.242Z,5.70
2022-09-03T08:18:32.120Z,8.10
2022-09-03T08:21:03.835Z,6.40
2022-09-03T08:23:34.847Z,5.40
2022-09-03T08:26:06.408Z,8.40
2022-09-03T08:28:38.085Z,6.90
2022-09-03T08:31:11.564Z,7.10
2022-09-03T08:33:43.822Z,7.20
2022-09-03T08:36:17.015Z,10.00
2022-09-03T08:38:48.724Z,8.00
2022-09-03T08:41:22.781Z,4.00
2022-09-03T08:44:08.889Z,2.90
2022-09-03T08:46:49.005Z,3.70
2022-09-03T08:49:24.276Z,10.90
2022-09-03T08:52:00.315Z,9.10
2022-09-03T08:54:33.725Z,3.20
2022-09-03T08:57:07.204Z,4.20
2022-09-03T08:59:38.465Z,7.80
2022-09-03T09:02:22.466Z,9.90
2022-09-03T09:05:06.062Z,6.10
2022-09-03T09:07:48.140Z,3.60
2022-09-03T09:10:28.418Z,6.60
2022-09-03T09:13:13.479Z,7.00
2022-09-03T09:15:56.341Z,3.90
2022-09-03T09:18:39.277Z,12.30
2022-09-03T09:21:21.458Z,14.30
2022-09-03T09:23:55.825Z,5.90
2022-09-03T09:26:27.173Z,5.30
2022-09-03T09:29:05.671Z,5.30
2022-09-03T09:31:44.757Z,5.60
2022-09-03T09:34:15.624Z,4.50
2022-09-03T09:36:52.167Z,6.30
2022-09-03T09:39:24.304Z,12.80
2022-09-03T09:42:08.377Z,5.60
2022-09-03T09:44:40.107Z,3.60
2022-09-03T09:47:14.747Z,5.30
2022-09-03T09:52:26.151Z,5.00
2022-09-03T09:55:09.923Z,6.20
2022-09-03T09:57:40.844Z,3.30
2022-09-03T10:00:15.935Z,6.60
2022-09-03T10:02:52.259Z,4.10
2022-09-03T10:05:28.020Z,3.10
2022-09-03T10:08:00.871Z,2.50
2022-09-03T10:10:35.551Z,2.50
2022-09-03T10:13:12.711Z,6.20
2022-09-03T10:15:51.350Z,10.10
2022-09-03T10:18:32.481Z,4.30
2022-09-03T10:21:07.951Z,4.90
2022-09-03T10:23:57.803Z,4.80
2022-09-03T10:26:32.497Z,3.60
2022-09-03T10:31:57.074Z,5.10
2022-09-03T10:34:37.361Z,4.50
2022-09-03T10:37:18.551Z,3.30
2022-09-03T10:40:06.550Z,3.90
2022-09-03T10:42:47.979Z,3.20
2022-09-03T10:45:39.396Z,4.90
2022-09-03T10:48:27.322Z,6.50
2022-09-03T10:51:04.280Z,3.10
2022-09-03T10:53:51.145Z,8.70
2022-09-03T10:56:33.979Z,9.10
2022-09-03T10:59:17.046Z,5.40
2022-09-03T11:01:56.534Z,2.90
2022-09-03T11:04:38.148Z,7.80
2022-09-03T11:07:13.816Z,4.10
2022-09-03T11:09:53.742Z,5.40
2022-09-03T11:12:30.913Z,2.60
2022-09-03T11:15:06.016Z,4.00
2022-09-03T11:17:41.437Z,4.50
2022-09-03T11:20:18.060Z,4.30
2022-09-03T11:22:51.051Z,4.90
2022-09-03T11:25:26.204Z,2.10
2022-09-03T11:30:41.929Z,13.40
2022-09-03T11:33:15.068Z,3.00
2022-09-03T11:35:46.371Z,4.70
2022-09-03T11:38:31.162Z,5.70
2022-09-03T11:41:05.901Z,2.40
2022-09-03T11:43:36.987Z,1.90
2022-09-03T11:46:13.344Z,3.80
2022-09-03T11:48:46.496Z,2.30
2022-09-03T11:51:35.767Z,5.50
2022-09-03T11:54:09.654Z,5.00
2022-09-03T11:56:41.304Z,4.30
2022-09-03T11:59:25.118Z,4.00
2022-09-03T12:02:02.109Z,3.50
2022-09-03T12:04:44.027Z,3.80
2022-09-03T12:07:45.019Z,5.30
2022-09-03T12:10:28.787Z,4.10
2022-09-03T12:13:13.658Z,2.60
2022-09-03T12:16:08.584Z,3.10
2022-09-03T12:18:41.897Z,2.80
2022-09-03T12:21:14.685Z,5.40
2022-09-03T12:23:49.328Z,3.40
2022-09-03T12:26:23.906Z,2.70
2022-09-03T12:28:56.620Z,4.10
2022-09-03T12:31:30.165Z,5.60
2022-09-03T12:34:04.295Z,2.50
2022-09-03T12:36:41.871Z,5.20
2022-09-03T12:39:15.043Z,1.90
2022-09-03T12:42:01.421Z,3.60
2022-09-03T12:44:34.465Z,2.80
2022-09-03T12:50:07.126Z,2.10
2022-09-03T12:52:41.248Z,3.70
2022-09-03T12:55:28.181Z,3.00
2022-09-03T12:58:11.405Z,2.90
2022-09-03T13:00:49.595Z,7.70
2022-09-03T13:03:25.873Z,2.30
2022-09-03T13:06:03.924Z,4.60
2022-09-03T13:08:41.135Z,3.30
2022-09-03T13:11:16.701Z,4.50
2022-09-03T13:13:58.465Z,2.30
2022-09-03T13:17:05.484Z,10.50
2022-09-03T13:19:52.206Z,13.30
2022-09-03T13:22:34.827Z,2.50
2022-09-03T13:25:20.659Z,4.70
2022-09-03T13:28:09.346Z,4.90
2022-09-03T13:30:51.430Z,6.40
2022-09-03T13:33:29.267Z,2.90
2022-09-03T13:36:11.341Z,2.80
2022-09-03T13:38:50.177Z,4.00
2022-09-03T13:41:36.792Z,2.00
2022-09-03T13:44:13.075Z,4.10
2022-09-03T13:46:53.432Z,6.30
2022-09-03T13:49:53.508Z,1.50
2022-09-03T13:52:32.477Z,4.70
2022-09-03T13:55:10.785Z,4.50
2022-09-03T13:57:50.533Z,2.90
2022-09-03T14:00:31.485Z,5.00
2022-09-03T14:03:14.748Z,1.90
2022-09-03T14:06:03.757Z,1.80
2022-09-03T14:08:54.285Z,2.90
2022-09-03T14:11:33.712Z,3.60
2022-09-03T14:14:21.812Z,2.40
2022-09-03T14:17:01.162Z,4.40
2022-09-03T14:19:41.560Z,2.10
2022-09-03T14:22:20.624Z,5.10
2022-09-03T14:24:56.827Z,3.10
2022-09-03T14:27:30.055Z,2.40
2022-09-03T14:30:06.632Z,4.70
2022-09-03T14:32:51.451Z,2.60
2022-09-03T14:35:48.542Z,2.10
2022-09-03T14:38:48.037Z,4.00
2022-09-03T14:41:37.528Z,3.20
2022-09-03T14:44:25.420Z,1.80
2022-09-03T14:47:12.269Z,6.00
2022-09-03T14:50:10.136Z,5.00
2022-09-03T14:53:09.379Z,1.60
2022-09-03T14:56:07.018Z,3.30
2022-09-03T14:58:51.531Z,4.90
2022-09-03T15:01:35.695Z,3.00
2022-09-03T15:04:46.849Z,1.70
2022-09-03T15:07:32.156Z,3.60
2022-09-03T15:12:40.093Z,2.50
2022-09-03T15:15:19.586Z,3.30
2022-09-03T15:18:03.432Z,7.00
2022-09-03T15:20:45.617Z,2.50
2022-09-03T15:23:42.028Z,2.60
2022-09-03T15:26:54.497Z,4.70
2022-09-03T15:29:49.834Z,2.30
2022-09-03T15:32:33.357Z,4.00
2022-09-03T15:35:09.998Z,4.70
2022-09-03T15:37:48.461Z,2.10
2022-09-03T15:40:29.927Z,2.80
2022-09-03T15:43:09.178Z,4.30
2022-09-03T15:45:57.426Z,4.20
2022-09-03T15:48:36.088Z,4.70
2022-09-03T15:51:17.504Z,9.70
2022-09-03T15:53:56.371Z,2.60
2022-09-03T15:56:37.070Z,1.30
2022-09-03T15:59:17.656Z,4.20
2022-09-03T16:01:54.939Z,2.70
2022-09-03T16:04:54.353Z,2.20
2022-09-03T16:07:34.446Z,3.70
2022-09-03T16:10:30.272Z,3.20
2022-09-03T16:13:11.225Z,3.40
2022-09-03T16:15:49.480Z,4.30
2022-09-03T16:18:30.341Z,2.20
2022-09-03T16:21:05.317Z,1.90
2022-09-03T16:26:16.200Z,2.00
2022-09-03T16:28:53.931Z,2.70
2022-09-03T16:31:36.464Z,2.60
2022-09-03T16:34:18.979Z,13.30
2022-09-03T16:36:57.585Z,3.40
2022-09-03T16:39:40.664Z,2.70
2022-09-03T16:42:19.619Z,5.50
2022-09-03T16:45:05.688Z,4.40
2022-09-03T16:47:48.860Z,3.80
2022-09-03T16:50:35.719Z,7.80
2022-09-03T16:53:15.718Z,4.40
2022-09-03T16:56:04.465Z,5.60
2022-09-03T16:58:47.658Z,3.20
2022-09-03T17:01:35.059Z,4.30
2022-09-03T17:04:26.184Z,2.20
2022-09-03T17:07:14.616Z,11.80
2022-09-03T17:10:02.409Z,4.30
2022-09-03T17:12:39.983Z,6.60
2022-09-03T17:15:32.170Z,5.60
2022-09-03T17:18:27.868Z,6.20
2022-09-03T17:21:19.390Z,10.20
2022-09-03T17:24:08.445Z,3.40
2022-09-03T17:26:53.537Z,13.10
2022-09-03T17:29:41.810Z,4.90
2022-09-03T17:32:28.869Z,3.70
2022-09-03T17:35:20.996Z,6.70
2022-09-03T17:38:16.058Z,10.10
2022-09-03T17:45:11.617Z,5.30
2022-09-03T17:48:06.272Z,15.60
2022-09-03T17:50:53.836Z,6.60
2022-09-03T17:53:33.317Z,6.60
2022-09-03T17:56:08.381Z,4.70
2022-09-03T17:58:46.015Z,9.50
2022-09-03T18:01:25.311Z,6.10
2022-09-03T18:04:02.175Z,5.10
2022-09-03T18:06:44.349Z,11.50
2022-09-03T18:09:53.390Z,4.90
2022-09-03T18:12:36.489Z,8.00
2022-09-03T18:15:30.869Z,19.70
2022-09-03T18:18:06.743Z,8.80
2022-09-03T18:21:23.963Z,7.60
2022-09-03T18:24:29.778Z,8.10
2022-09-03T18:27:22.643Z,4.90
2022-09-03T18:30:40.318Z,8.30
2022-09-03T18:33:30.266Z,6.50
2022-09-03T18:36:28.521Z,6.10
2022-09-03T18:39:52.316Z,8.20
2022-09-03T18:42:50.657Z,6.20
2022-09-03T18:46:34.181Z,8.50
2022-09-03T18:49:08.680Z,5.40
2022-09-03T18:52:12.085Z,5.20
2022-09-03T18:55:15.670Z,9.70
2022-09-03T19:02:01.340Z,6.80
2022-09-03T19:05:04.888Z,6.70
2022-09-03T19:08:14.258Z,11.10
2022-09-03T19:11:27.176Z,7.50
2022-09-03T19:14:25.063Z,5.60
2022-09-03T19:17:36.181Z,13.40
2022-09-03T19:21:09.020Z,9.20
2022-09-03T19:23:59.536Z,10.00
2022-09-03T19:34:23.329Z,10.20
2022-09-03T19:37:23.366Z,7.80
2022-09-03T19:40:30.425Z,6.80
2022-09-03T19:43:36.974Z,7.50
2022-09-03T19:46:45.883Z,9.40
2022-09-03T19:53:22.053Z,6.30
2022-09-03T19:56:14.178Z,7.90
2022-09-03T19:59:10.662Z,7.70
2022-09-03T20:02:00.747Z,4.90
2022-09-03T20:05:16.874Z,6.30
2022-09-03T20:08:09.602Z,6.30
2022-09-03T20:10:42.996Z,7.30
2022-09-03T20:13:18.782Z,10.50
2022-09-03T20:16:02.146Z,7.70
2022-09-03T20:18:45.644Z,8.30
2022-09-03T20:21:25.158Z,5.40
2022-09-03T20:24:01.958Z,12.70
2022-09-03T20:26:52.997Z,8.00
2022-09-03T20:29:57.819Z,8.20
2022-09-03T20:32:54.198Z,4.90
2022-09-03T20:35:35.739Z,14.50
2022-09-03T20:38:30.927Z,6.60
2022-09-03T20:41:15.225Z,11.20
2022-09-03T20:44:10.626Z,6.10
2022-09-03T20:47:00.296Z,5.40
2022-09-03T20:49:42.776Z,7.60
2022-09-03T20:52:21.185Z,6.80
2022-09-03T20:55:07.173Z,8.10
2022-09-03T20:58:08.068Z,10.70
2022-09-03T21:00:51.136Z,6.70
2022-09-03T21:03:50.227Z,10.50
2022-09-03T21:06:34.612Z,15.40
2022-09-03T21:09:26.983Z,9.70
2022-09-03T21:12:09.857Z,7.00
2022-09-03T21:14:48.535Z,13.60
2022-09-03T21:17:38.953Z,8.80
2022-09-03T21:20:21.547Z,5.30
2022-09-03T21:23:06.535Z,7.80
2022-09-03T21:25:41.170Z,6.20
2022-09-03T21:28:19.264Z,14.20
2022-09-03T21:30:57.615Z,6.50
2022-09-03T21:33:34.501Z,7.20
2022-09-03T21:36:15.698Z,8.70
2022-09-03T21:39:15.810Z,8.40
2022-09-03T21:41:54.777Z,14.70
2022-09-03T21:44:47.898Z,5.60
2022-09-03T21:47:21.472Z,6.80
2022-09-03T21:50:04.099Z,11.40
2022-09-03T21:52:50.496Z,8.50
2022-09-03T21:55:31.756Z,11.90
2022-09-03T21:58:20.430Z,14.10
2022-09-03T22:00:57.722Z,10.40
2022-09-03T22:03:28.921Z,6.90
2022-09-03T22:06:07.811Z,10.30
2022-09-03T22:08:49.425Z,11.30
2022-09-03T22:11:29.688Z,11.20
2022-09-03T22:14:10.822Z,10.00
2022-09-03T22:16:47.567Z,14.80
2022-09-03T22:19:19.247Z,11.40
2022-09-03T22:21:59.669Z,9.30
2022-09-03T22:24:41.592Z,9.80
2022-09-03T22:27:26.053Z,15.40
2022-09-03T22:30:07.445Z,12.10
2022-09-03T22:32:59.337Z,23.60
2022-09-03T22:35:48.744Z,13.60
2022-09-03T22:38:37.632Z,16.50
2022-09-03T22:41:26.048Z,17.60
2022-09-03T22:44:11.481Z,15.70
2022-09-03T22:46:50.461Z,16.80
2022-09-03T22:49:38.198Z,21.00
2022-09-03T22:52:30.475Z,22.80
2022-09-03T22:55:18.638Z,15.70
2022-09-03T22:57:57.346Z,15.10
2022-09-03T23:00:30.737Z,16.10
2022-09-03T23:03:09.028Z,16.30
2022-09-03T23:05:45.999Z,21.40
2022-09-03T23:08:25.536Z,24.00
2022-09-03T23:11:03.901Z,20.10
2022-09-03T23:13:42.243Z,22.50
2022-09-03T23:16:20.740Z,19.60
2022-09-03T23:18:53.402Z,17.20
2022-09-03T23:21:31.553Z,18.10
2022-09-03T23:24:07.289Z,16.30
2022-09-03T23:26:42.945Z,17.20
2022-09-03T23:29:20.679Z,18.20
2022-09-03T23:31:54.057Z,17.30
2022-09-03T23:34:25.923Z,25.90
2022-09-03T23:40:28.122Z,20.20
2022-09-03T23:43:17.367Z,13.60
2022-09-03T23:46:03.983Z,13.70
2022-09-03T23:48:45.264Z,16.60
2022-09-03T23:51:28.183Z,17.90
2022-09-03T23:54:10.311Z,17.50
2022-09-03T23:56:58.318Z,16.40
2022-09-03T23:59:42.066Z,24.20
